sensor_id;sensor_type;location;lat;lon;timestamp;P1;durP1;ratioP1;P2;durP2;ratioP2
20734;SDS011;10528;52.124;5.196;2023-07-20T00:02:24;4.32;;;2.20;;
20734;SDS011;10528;52.124;5.196;2023-07-20T00:04:51;3.08;;;1.90;;
20734;SDS011;10528;52.124;5.196;2023-07-20T00:07:17;3.00;;;1.90;;
20734;SDS011;10528;52.124;5.196;2023-07-20T00:09:44;3.15;;;1.90;;
20734;SDS011;10528;52.124;5.196;2023-07-20T00:12:11;3.00;;;1.65;;
20734;SDS011;10528;52.124;5.196;2023-07-20T00:14:40;4.63;;;1.92;;
20734;SDS011;10528;52.124;5.196;2023-07-20T00:17:07;3.22;;;1.70;;
20734;SDS011;10528;52.124;5.196;2023-07-20T00:19:34;2.38;;;1.52;;
20734;SDS011;10528;52.124;5.196;2023-07-20T00:22:01;3.75;;;1.75;;
20734;SDS011;10528;52.124;5.196;2023-07-20T00:24:28;2.78;;;1.40;;
20734;SDS011;10528;52.124;5.196;2023-07-20T00:26:55;2.22;;;1.40;;
20734;SDS011;10528;52.124;5.196;2023-07-20T00:29:22;1.88;;;1.10;;
20734;SDS011;10528;52.124;5.196;2023-07-20T00:31:49;2.47;;;1.02;;
20734;SDS011;10528;52.124;5.196;2023-07-20T00:34:17;1.67;;;1.00;;
20734;SDS011;10528;52.124;5.196;2023-07-20T00:36:44;2.22;;;1.30;;
20734;SDS011;10528;52.124;5.196;2023-07-20T00:39:11;2.03;;;1.10;;
20734;SDS011;10528;52.124;5.196;2023-07-20T00:41:38;2.20;;;0.90;;
20734;SDS011;10528;52.124;5.196;2023-07-20T00:44:05;2.30;;;1.05;;
20734;SDS011;10528;52.124;5.196;2023-07-20T00:46:32;1.70;;;1.00;;
20734;SDS011;10528;52.124;5.196;2023-07-20T00:49:00;1.98;;;1.17;;
20734;SDS011;10528;52.124;5.196;2023-07-20T00:51:27;1.75;;;1.00;;
20734;SDS011;10528;52.124;5.196;2023-07-20T00:53:55;1.65;;;1.00;;
20734;SDS011;10528;52.124;5.196;2023-07-20T00:56:22;1.70;;;1.20;;
20734;SDS011;10528;52.124;5.196;2023-07-20T00:58:49;1.10;;;1.00;;
20734;SDS011;10528;52.124;5.196;2023-07-20T01:01:20;1.25;;;1.00;;
20734;SDS011;10528;52.124;5.196;2023-07-20T01:03:48;2.72;;;1.58;;
20734;SDS011;10528;52.124;5.196;2023-07-20T01:06:20;1.67;;;1.15;;
20734;SDS011;10528;52.124;5.196;2023-07-20T01:14:59;2.13;;;1.30;;
20734;SDS011;10528;52.124;5.196;2023-07-20T01:17:26;3.40;;;1.38;;
20734;SDS011;10528;52.124;5.196;2023-07-20T01:19:53;2.08;;;1.30;;
20734;SDS011;10528;52.124;5.196;2023-07-20T01:25:16;2.25;;;1.17;;
20734;SDS011;10528;52.124;5.196;2023-07-20T01:31:34;1.55;;;1.10;;
20734;SDS011;10528;52.124;5.196;2023-07-20T01:34:05;2.55;;;1.40;;
20734;SDS011;10528;52.124;5.196;2023-07-20T01:36:35;2.20;;;1.20;;
20734;SDS011;10528;52.124;5.196;2023-07-20T01:39:04;1.40;;;1.20;;
20734;SDS011;10528;52.124;5.196;2023-07-20T01:41:32;1.45;;;1.20;;
20734;SDS011;10528;52.124;5.196;2023-07-20T01:44:00;2.05;;;1.23;;
20734;SDS011;10528;52.124;5.196;2023-07-20T01:46:30;1.70;;;1.10;;
20734;SDS011;10528;52.124;5.196;2023-07-20T01:48:57;3.22;;;1.50;;
20734;SDS011;10528;52.124;5.196;2023-07-20T01:51:24;2.42;;;1.27;;
20734;SDS011;10528;52.124;5.196;2023-07-20T01:53:51;2.58;;;1.25;;
20734;SDS011;10528;52.124;5.196;2023-07-20T01:56:18;2.15;;;1.20;;
20734;SDS011;10528;52.124;5.196;2023-07-20T01:58:46;2.03;;;1.40;;
20734;SDS011;10528;52.124;5.196;2023-07-20T02:01:13;1.42;;;1.10;;
20734;SDS011;10528;52.124;5.196;2023-07-20T02:03:40;2.80;;;1.40;;
20734;SDS011;10528;52.124;5.196;2023-07-20T02:06:07;2.60;;;1.45;;
20734;SDS011;10528;52.124;5.196;2023-07-20T02:08:34;2.22;;;1.20;;
20734;SDS011;10528;52.124;5.196;2023-07-20T02:11:01;2.63;;;1.40;;
20734;SDS011;10528;52.124;5.196;2023-07-20T02:13:29;2.45;;;1.33;;
20734;SDS011;10528;52.124;5.196;2023-07-20T02:15:56;1.40;;;1.20;;
20734;SDS011;10528;52.124;5.196;2023-07-20T02:18:23;1.73;;;1.50;;
20734;SDS011;10528;52.124;5.196;2023-07-20T02:20:52;3.03;;;1.50;;
20734;SDS011;10528;52.124;5.196;2023-07-20T02:23:20;2.35;;;1.20;;
20734;SDS011;10528;52.124;5.196;2023-07-20T02:25:47;3.67;;;1.30;;
20734;SDS011;10528;52.124;5.196;2023-07-20T02:28:15;2.47;;;1.23;;
20734;SDS011;10528;52.124;5.196;2023-07-20T02:30:44;2.53;;;1.42;;
20734;SDS011;10528;52.124;5.196;2023-07-20T02:33:11;2.67;;;1.40;;
20734;SDS011;10528;52.124;5.196;2023-07-20T02:35:38;2.10;;;1.50;;
20734;SDS011;10528;52.124;5.196;2023-07-20T02:38:07;3.58;;;1.60;;
20734;SDS011;10528;52.124;5.196;2023-07-20T02:40:34;7.90;;;1.80;;
20734;SDS011;10528;52.124;5.196;2023-07-20T02:43:01;5.35;;;1.73;;
20734;SDS011;10528;52.124;5.196;2023-07-20T02:45:28;3.60;;;1.60;;
20734;SDS011;10528;52.124;5.196;2023-07-20T02:47:55;1.85;;;1.40;;
20734;SDS011;10528;52.124;5.196;2023-07-20T02:50:22;2.90;;;1.48;;
20734;SDS011;10528;52.124;5.196;2023-07-20T02:52:49;2.53;;;1.60;;
20734;SDS011;10528;52.124;5.196;2023-07-20T02:55:16;1.85;;;1.38;;
20734;SDS011;10528;52.124;5.196;2023-07-20T02:57:43;2.35;;;1.65;;
20734;SDS011;10528;52.124;5.196;2023-07-20T03:00:10;2.17;;;1.60;;
20734;SDS011;10528;52.124;5.196;2023-07-20T03:02:41;2.17;;;1.50;;
20734;SDS011;10528;52.124;5.196;2023-07-20T03:05:09;2.50;;;1.67;;
20734;SDS011;10528;52.124;5.196;2023-07-20T03:07:36;3.80;;;1.50;;
20734;SDS011;10528;52.124;5.196;2023-07-20T03:10:03;1.90;;;1.40;;
20734;SDS011;10528;52.124;5.196;2023-07-20T03:12:30;2.33;;;1.38;;
20734;SDS011;10528;52.124;5.196;2023-07-20T03:14:57;1.65;;;1.40;;
20734;SDS011;10528;52.124;5.196;2023-07-20T03:17:25;1.48;;;1.33;;
20734;SDS011;10528;52.124;5.196;2023-07-20T03:19:52;3.13;;;2.03;;
20734;SDS011;10528;52.124;5.196;2023-07-20T03:22:18;3.22;;;2.05;;
20734;SDS011;10528;52.124;5.196;2023-07-20T03:24:47;2.25;;;1.98;;
20734;SDS011;10528;52.124;5.196;2023-07-20T03:27:14;2.10;;;1.65;;
20734;SDS011;10528;52.124;5.196;2023-07-20T03:29:41;2.50;;;1.70;;
20734;SDS011;10528;52.124;5.196;2023-07-20T03:32:09;2.35;;;1.65;;
20734;SDS011;10528;52.124;5.196;2023-07-20T03:34:37;3.22;;;2.03;;
20734;SDS011;10528;52.124;5.196;2023-07-20T03:37:04;2.22;;;1.88;;
20734;SDS011;10528;52.124;5.196;2023-07-20T03:39:31;4.25;;;2.10;;
20734;SDS011;10528;52.124;5.196;2023-07-20T03:41:58;3.58;;;1.98;;
20734;SDS011;10528;52.124;5.196;2023-07-20T03:44:25;2.33;;;1.98;;
20734;SDS011;10528;52.124;5.196;2023-07-20T03:46:52;2.30;;;1.70;;
20734;SDS011;10528;52.124;5.196;2023-07-20T03:49:19;2.38;;;1.75;;
20734;SDS011;10528;52.124;5.196;2023-07-20T03:51:46;3.47;;;1.80;;
20734;SDS011;10528;52.124;5.196;2023-07-20T03:54:13;2.03;;;1.58;;
20734;SDS011;10528;52.124;5.196;2023-07-20T03:56:40;3.58;;;1.90;;
20734;SDS011;10528;52.124;5.196;2023-07-20T03:59:07;4.78;;;2.10;;
20734;SDS011;10528;52.124;5.196;2023-07-20T04:01:34;2.33;;;1.80;;
20734;SDS011;10528;52.124;5.196;2023-07-20T04:04:06;3.50;;;2.08;;
20734;SDS011;10528;52.124;5.196;2023-07-20T04:06:35;4.60;;;2.10;;
20734;SDS011;10528;52.124;5.196;2023-07-20T04:09:02;3.55;;;1.92;;
20734;SDS011;10528;52.124;5.196;2023-07-20T04:11:31;4.63;;;2.10;;
20734;SDS011;10528;52.124;5.196;2023-07-20T04:13:58;2.80;;;2.00;;
20734;SDS011;10528;52.124;5.196;2023-07-20T04:16:25;2.42;;;1.70;;
20734;SDS011;10528;52.124;5.196;2023-07-20T04:18:56;4.43;;;2.20;;
20734;SDS011;10528;52.124;5.196;2023-07-20T04:21:27;5.60;;;2.30;;
20734;SDS011;10528;52.124;5.196;2023-07-20T04:23:55;2.63;;;1.85;;
20734;SDS011;10528;52.124;5.196;2023-07-20T04:26:23;3.60;;;2.20;;
20734;SDS011;10528;52.124;5.196;2023-07-20T04:28:51;2.85;;;2.20;;
20734;SDS011;10528;52.124;5.196;2023-07-20T04:31:31;3.65;;;2.75;;
20734;SDS011;10528;52.124;5.196;2023-07-20T04:33:59;3.92;;;2.72;;
20734;SDS011;10528;52.124;5.196;2023-07-20T04:36:27;3.40;;;2.63;;
20734;SDS011;10528;52.124;5.196;2023-07-20T04:38:54;3.60;;;3.00;;
20734;SDS011;10528;52.124;5.196;2023-07-20T04:41:22;4.85;;;2.55;;
20734;SDS011;10528;52.124;5.196;2023-07-20T04:43:50;3.30;;;2.67;;
20734;SDS011;10528;52.124;5.196;2023-07-20T04:46:24;5.13;;;3.42;;
20734;SDS011;10528;52.124;5.196;2023-07-20T04:48:52;5.40;;;3.28;;
20734;SDS011;10528;52.124;5.196;2023-07-20T04:51:19;5.32;;;3.28;;
20734;SDS011;10528;52.124;5.196;2023-07-20T04:53:49;4.22;;;3.10;;
20734;SDS011;10528;52.124;5.196;2023-07-20T04:56:16;4.80;;;3.50;;
20734;SDS011;10528;52.124;5.196;2023-07-20T04:58:43;5.03;;;3.72;;
20734;SDS011;10528;52.124;5.196;2023-07-20T05:01:10;5.15;;;3.58;;
20734;SDS011;10528;52.124;5.196;2023-07-20T05:03:38;4.97;;;3.50;;
20734;SDS011;10528;52.124;5.196;2023-07-20T05:06:08;4.32;;;3.33;;
20734;SDS011;10528;52.124;5.196;2023-07-20T05:08:34;4.38;;;3.30;;
20734;SDS011;10528;52.124;5.196;2023-07-20T05:11:01;3.65;;;2.95;;
20734;SDS011;10528;52.124;5.196;2023-07-20T05:13:29;4.68;;;3.38;;
20734;SDS011;10528;52.124;5.196;2023-07-20T05:15:56;4.70;;;3.38;;
20734;SDS011;10528;52.124;5.196;2023-07-20T05:18:23;4.35;;;3.30;;
20734;SDS011;10528;52.124;5.196;2023-07-20T05:20:50;4.50;;;3.17;;
20734;SDS011;10528;52.124;5.196;2023-07-20T05:23:18;4.32;;;2.80;;
20734;SDS011;10528;52.124;5.196;2023-07-20T05:25:55;3.67;;;2.97;;
20734;SDS011;10528;52.124;5.196;2023-07-20T05:28:23;4.57;;;2.80;;
20734;SDS011;10528;52.124;5.196;2023-07-20T05:30:52;3.13;;;2.30;;
20734;SDS011;10528;52.124;5.196;2023-07-20T05:33:20;3.72;;;2.58;;
20734;SDS011;10528;52.124;5.196;2023-07-20T05:35:47;4.03;;;2.40;;
20734;SDS011;10528;52.124;5.196;2023-07-20T05:38:14;2.85;;;1.90;;
20734;SDS011;10528;52.124;5.196;2023-07-20T05:40:42;2.58;;;1.75;;
20734;SDS011;10528;52.124;5.196;2023-07-20T05:43:11;3.20;;;1.60;;
20734;SDS011;10528;52.124;5.196;2023-07-20T05:45:41;3.20;;;1.65;;
20734;SDS011;10528;52.124;5.196;2023-07-20T05:48:09;2.65;;;1.40;;
20734;SDS011;10528;52.124;5.196;2023-07-20T05:50:38;6.97;;;1.55;;
20734;SDS011;10528;52.124;5.196;2023-07-20T05:53:09;2.08;;;1.23;;
20734;SDS011;10528;52.124;5.196;2023-07-20T05:55:36;1.90;;;1.05;;
20734;SDS011;10528;52.124;5.196;2023-07-20T05:58:04;2.45;;;1.20;;
20734;SDS011;10528;52.124;5.196;2023-07-20T06:00:31;2.40;;;1.10;;
20734;SDS011;10528;52.124;5.196;2023-07-20T06:02:58;2.90;;;0.90;;
20734;SDS011;10528;52.124;5.196;2023-07-20T06:05:25;1.73;;;1.00;;
20734;SDS011;10528;52.124;5.196;2023-07-20T06:07:54;2.30;;;0.90;;
20734;SDS011;10528;52.124;5.196;2023-07-20T06:10:23;1.27;;;0.73;;
20734;SDS011;10528;52.124;5.196;2023-07-20T06:12:50;2.65;;;0.90;;
20734;SDS011;10528;52.124;5.196;2023-07-20T06:15:24;2.70;;;0.80;;
20734;SDS011;10528;52.124;5.196;2023-07-20T06:17:58;1.25;;;0.80;;
20734;SDS011;10528;52.124;5.196;2023-07-20T06:20:25;2.55;;;0.65;;
20734;SDS011;10528;52.124;5.196;2023-07-20T06:22:52;2.72;;;1.23;;
20734;SDS011;10528;52.124;5.196;2023-07-20T06:25:19;1.48;;;0.60;;
20734;SDS011;10528;52.124;5.196;2023-07-20T06:27:48;0.60;;;0.50;;
20734;SDS011;10528;52.124;5.196;2023-07-20T06:30:18;1.05;;;0.60;;
20734;SDS011;10528;52.124;5.196;2023-07-20T06:32:45;1.10;;;0.70;;
20734;SDS011;10528;52.124;5.196;2023-07-20T06:35:12;0.82;;;0.52;;
20734;SDS011;10528;52.124;5.196;2023-07-20T06:37:40;1.05;;;0.60;;
20734;SDS011;10528;52.124;5.196;2023-07-20T06:40:08;2.30;;;0.52;;
20734;SDS011;10528;52.124;5.196;2023-07-20T06:42:38;1.15;;;0.60;;
20734;SDS011;10528;52.124;5.196;2023-07-20T06:45:08;3.33;;;0.75;;
20734;SDS011;10528;52.124;5.196;2023-07-20T06:47:39;1.42;;;0.50;;
20734;SDS011;10528;52.124;5.196;2023-07-20T06:50:06;2.08;;;0.60;;
20734;SDS011;10528;52.124;5.196;2023-07-20T06:52:34;1.33;;;0.43;;
20734;SDS011;10528;52.124;5.196;2023-07-20T06:55:01;1.58;;;0.68;;
20734;SDS011;10528;52.124;5.196;2023-07-20T06:57:31;0.95;;;0.60;;
20734;SDS011;10528;52.124;5.196;2023-07-20T06:59:58;1.40;;;0.38;;
20734;SDS011;10528;52.124;5.196;2023-07-20T07:02:25;1.98;;;0.50;;
20734;SDS011;10528;52.124;5.196;2023-07-20T07:04:52;0.70;;;0.30;;
20734;SDS011;10528;52.124;5.196;2023-07-20T07:07:26;2.03;;;0.40;;
20734;SDS011;10528;52.124;5.196;2023-07-20T07:09:53;0.50;;;0.38;;
20734;SDS011;10528;52.124;5.196;2023-07-20T07:12:20;1.48;;;0.40;;
20734;SDS011;10528;52.124;5.196;2023-07-20T07:14:47;1.52;;;0.20;;
20734;SDS011;10528;52.124;5.196;2023-07-20T07:17:14;1.05;;;0.30;;
20734;SDS011;10528;52.124;5.196;2023-07-20T07:19:45;1.75;;;0.40;;
20734;SDS011;10528;52.124;5.196;2023-07-20T07:22:14;0.93;;;0.40;;
20734;SDS011;10528;52.124;5.196;2023-07-20T07:24:41;0.30;;;0.30;;
20734;SDS011;10528;52.124;5.196;2023-07-20T07:27:10;0.95;;;0.50;;
20734;SDS011;10528;52.124;5.196;2023-07-20T07:29:37;0.28;;;0.20;;
20734;SDS011;10528;52.124;5.196;2023-07-20T07:32:04;0.95;;;0.38;;
20734;SDS011;10528;52.124;5.196;2023-07-20T07:34:31;1.13;;;0.40;;
20734;SDS011;10528;52.124;5.196;2023-07-20T07:37:01;2.85;;;0.57;;
20734;SDS011;10528;52.124;5.196;2023-07-20T07:39:28;0.95;;;0.47;;
20734;SDS011;10528;52.124;5.196;2023-07-20T07:42:00;0.98;;;0.40;;
20734;SDS011;10528;52.124;5.196;2023-07-20T07:44:27;0.95;;;0.57;;
20734;SDS011;10528;52.124;5.196;2023-07-20T07:46:54;0.57;;;0.30;;
20734;SDS011;10528;52.124;5.196;2023-07-20T07:49:22;1.88;;;0.30;;
20734;SDS011;10528;52.124;5.196;2023-07-20T07:51:49;1.65;;;0.47;;
20734;SDS011;10528;52.124;5.196;2023-07-20T07:54:16;0.70;;;0.50;;
20734;SDS011;10528;52.124;5.196;2023-07-20T07:56:43;0.85;;;0.30;;
20734;SDS011;10528;52.124;5.196;2023-07-20T07:59:11;0.60;;;0.30;;
20734;SDS011;10528;52.124;5.196;2023-07-20T08:01:37;0.40;;;0.20;;
20734;SDS011;10528;52.124;5.196;2023-07-20T08:04:04;0.40;;;0.30;;
20734;SDS011;10528;52.124;5.196;2023-07-20T08:06:32;0.60;;;0.40;;
20734;SDS011;10528;52.124;5.196;2023-07-20T08:08:59;0.35;;;0.30;;
20734;SDS011;10528;52.124;5.196;2023-07-20T08:11:26;0.95;;;0.30;;
20734;SDS011;10528;52.124;5.196;2023-07-20T08:13:57;1.10;;;0.40;;
20734;SDS011;10528;52.124;5.196;2023-07-20T08:16:23;1.75;;;0.30;;
20734;SDS011;10528;52.124;5.196;2023-07-20T08:18:51;0.68;;;0.40;;
20734;SDS011;10528;52.124;5.196;2023-07-20T08:21:19;0.52;;;0.25;;
20734;SDS011;10528;52.124;5.196;2023-07-20T08:23:45;2.15;;;0.32;;
20734;SDS011;10528;52.124;5.196;2023-07-20T08:26:13;0.88;;;0.35;;
20734;SDS011;10528;52.124;5.196;2023-07-20T08:28:40;1.67;;;0.47;;
20734;SDS011;10528;52.124;5.196;2023-07-20T08:31:09;0.47;;;0.35;;
20734;SDS011;10528;52.124;5.196;2023-07-20T08:33:36;0.30;;;0.30;;
20734;SDS011;10528;52.124;5.196;2023-07-20T08:36:03;0.65;;;0.40;;
20734;SDS011;10528;52.124;5.196;2023-07-20T08:38:32;1.17;;;0.40;;
20734;SDS011;10528;52.124;5.196;2023-07-20T08:40:59;1.35;;;0.30;;
20734;SDS011;10528;52.124;5.196;2023-07-20T08:43:28;0.80;;;0.40;;
20734;SDS011;10528;52.124;5.196;2023-07-20T08:45:56;1.13;;;0.40;;
20734;SDS011;10528;52.124;5.196;2023-07-20T08:48:24;2.05;;;0.40;;
20734;SDS011;10528;52.124;5.196;2023-07-20T08:50:54;0.32;;;0.30;;
20734;SDS011;10528;52.124;5.196;2023-07-20T08:53:23;0.88;;;0.60;;
20734;SDS011;10528;52.124;5.196;2023-07-20T08:55:50;0.60;;;0.35;;
20734;SDS011;10528;52.124;5.196;2023-07-20T08:58:20;0.73;;;0.32;;
20734;SDS011;10528;52.124;5.196;2023-07-20T09:00:50;0.40;;;0.40;;
20734;SDS011;10528;52.124;5.196;2023-07-20T09:03:17;0.30;;;0.20;;
20734;SDS011;10528;52.124;5.196;2023-07-20T09:05:45;1.50;;;0.30;;
20734;SDS011;10528;52.124;5.196;2023-07-20T09:08:12;0.70;;;0.25;;
20734;SDS011;10528;52.124;5.196;2023-07-20T09:10:39;1.38;;;0.50;;
20734;SDS011;10528;52.124;5.196;2023-07-20T09:13:06;1.38;;;0.40;;
20734;SDS011;10528;52.124;5.196;2023-07-20T09:15:36;0.73;;;0.40;;
20734;SDS011;10528;52.124;5.196;2023-07-20T09:18:03;1.60;;;0.50;;
20734;SDS011;10528;52.124;5.196;2023-07-20T09:20:31;0.75;;;0.30;;
20734;SDS011;10528;52.124;5.196;2023-07-20T09:23:03;0.57;;;0.30;;
20734;SDS011;10528;52.124;5.196;2023-07-20T09:25:32;0.60;;;0.40;;
20734;SDS011;10528;52.124;5.196;2023-07-20T09:28:02;0.77;;;0.32;;
20734;SDS011;10528;52.124;5.196;2023-07-20T09:30:31;0.57;;;0.30;;
20734;SDS011;10528;52.124;5.196;2023-07-20T09:32:59;0.52;;;0.30;;
20734;SDS011;10528;52.124;5.196;2023-07-20T09:35:26;0.68;;;0.22;;
20734;SDS011;10528;52.124;5.196;2023-07-20T09:38:06;1.45;;;0.40;;
20734;SDS011;10528;52.124;5.196;2023-07-20T09:40:38;1.00;;;0.30;;
20734;SDS011;10528;52.124;5.196;2023-07-20T09:43:09;1.63;;;0.30;;
20734;SDS011;10528;52.124;5.196;2023-07-20T09:45:40;2.92;;;0.60;;
20734;SDS011;10528;52.124;5.196;2023-07-20T09:48:11;1.70;;;0.30;;
20734;SDS011;10528;52.124;5.196;2023-07-20T09:50:51;0.45;;;0.30;;
20734;SDS011;10528;52.124;5.196;2023-07-20T09:53:19;0.32;;;0.30;;
20734;SDS011;10528;52.124;5.196;2023-07-20T09:55:47;0.85;;;0.40;;
20734;SDS011;10528;52.124;5.196;2023-07-20T09:58:14;0.55;;;0.20;;
20734;SDS011;10528;52.124;5.196;2023-07-20T10:00:44;0.50;;;0.38;;
20734;SDS011;10528;52.124;5.196;2023-07-20T10:03:28;0.45;;;0.30;;
20734;SDS011;10528;52.124;5.196;2023-07-20T10:06:02;0.52;;;0.30;;
20734;SDS011;10528;52.124;5.196;2023-07-20T10:08:38;2.15;;;0.40;;
20734;SDS011;10528;52.124;5.196;2023-07-20T10:11:10;0.88;;;0.25;;
20734;SDS011;10528;52.124;5.196;2023-07-20T10:13:41;0.60;;;0.40;;
20734;SDS011;10528;52.124;5.196;2023-07-20T10:16:14;0.40;;;0.30;;
20734;SDS011;10528;52.124;5.196;2023-07-20T10:19:03;1.15;;;0.40;;
20734;SDS011;10528;52.124;5.196;2023-07-20T10:21:56;1.08;;;0.40;;
20734;SDS011;10528;52.124;5.196;2023-07-20T10:24:30;1.17;;;0.50;;
20734;SDS011;10528;52.124;5.196;2023-07-20T10:26:58;3.45;;;0.50;;
20734;SDS011;10528;52.124;5.196;2023-07-20T10:29:27;1.27;;;0.35;;
20734;SDS011;10528;52.124;5.196;2023-07-20T10:31:56;0.82;;;0.30;;
20734;SDS011;10528;52.124;5.196;2023-07-20T10:34:24;0.73;;;0.30;;
20734;SDS011;10528;52.124;5.196;2023-07-20T10:36:51;0.50;;;0.30;;
20734;SDS011;10528;52.124;5.196;2023-07-20T10:42:09;1.98;;;0.68;;
20734;SDS011;10528;52.124;5.196;2023-07-20T10:44:37;1.33;;;0.40;;
20734;SDS011;10528;52.124;5.196;2023-07-20T10:47:09;1.30;;;0.50;;
20734;SDS011;10528;52.124;5.196;2023-07-20T10:50:00;0.60;;;0.30;;
20734;SDS011;10528;52.124;5.196;2023-07-20T10:52:36;1.23;;;0.52;;
20734;SDS011;10528;52.124;5.196;2023-07-20T10:55:15;2.63;;;0.65;;
20734;SDS011;10528;52.124;5.196;2023-07-20T10:57:43;1.02;;;0.60;;
20734;SDS011;10528;52.124;5.196;2023-07-20T11:00:34;0.90;;;0.70;;
20734;SDS011;10528;52.124;5.196;2023-07-20T11:03:01;1.77;;;0.70;;
20734;SDS011;10528;52.124;5.196;2023-07-20T11:05:38;1.60;;;0.50;;
20734;SDS011;10528;52.124;5.196;2023-07-20T11:08:10;0.73;;;0.55;;
20734;SDS011;10528;52.124;5.196;2023-07-20T11:10:38;1.35;;;0.63;;
20734;SDS011;10528;52.124;5.196;2023-07-20T11:18:25;1.13;;;0.60;;
20734;SDS011;10528;52.124;5.196;2023-07-20T11:20:53;0.65;;;0.52;;
20734;SDS011;10528;52.124;5.196;2023-07-20T11:23:20;1.10;;;0.60;;
20734;SDS011;10528;52.124;5.196;2023-07-20T11:25:48;0.70;;;0.45;;
20734;SDS011;10528;52.124;5.196;2023-07-20T11:28:16;2.00;;;0.70;;
20734;SDS011;10528;52.124;5.196;2023-07-20T11:30:43;2.22;;;0.80;;
20734;SDS011;10528;52.124;5.196;2023-07-20T11:33:10;1.67;;;0.70;;
20734;SDS011;10528;52.124;5.196;2023-07-20T11:35:44;3.35;;;0.60;;
20734;SDS011;10528;52.124;5.196;2023-07-20T11:38:13;1.50;;;0.50;;
20734;SDS011;10528;52.124;5.196;2023-07-20T11:40:46;1.83;;;0.73;;
20734;SDS011;10528;52.124;5.196;2023-07-20T11:43:13;3.50;;;0.70;;
20734;SDS011;10528;52.124;5.196;2023-07-20T11:45:44;0.75;;;0.55;;
20734;SDS011;10528;52.124;5.196;2023-07-20T11:48:15;1.08;;;0.50;;
20734;SDS011;10528;52.124;5.196;2023-07-20T11:50:43;2.42;;;0.60;;
20734;SDS011;10528;52.124;5.196;2023-07-20T11:53:10;1.60;;;0.60;;
20734;SDS011;10528;52.124;5.196;2023-07-20T11:55:39;2.38;;;0.65;;
20734;SDS011;10528;52.124;5.196;2023-07-20T11:58:08;1.08;;;0.50;;
20734;SDS011;10528;52.124;5.196;2023-07-20T12:00:37;2.60;;;0.70;;
20734;SDS011;10528;52.124;5.196;2023-07-20T12:03:06;1.50;;;0.90;;
20734;SDS011;10528;52.124;5.196;2023-07-20T12:05:34;3.28;;;0.63;;
20734;SDS011;10528;52.124;5.196;2023-07-20T12:08:21;0.60;;;0.40;;
20734;SDS011;10528;52.124;5.196;2023-07-20T12:10:49;3.80;;;0.50;;
20734;SDS011;10528;52.124;5.196;2023-07-20T12:13:17;0.82;;;0.40;;
20734;SDS011;10528;52.124;5.196;2023-07-20T12:15:44;1.75;;;0.60;;
20734;SDS011;10528;52.124;5.196;2023-07-20T12:18:11;2.03;;;0.50;;
20734;SDS011;10528;52.124;5.196;2023-07-20T12:20:38;0.95;;;0.40;;
20734;SDS011;10528;52.124;5.196;2023-07-20T12:23:10;0.90;;;0.55;;
20734;SDS011;10528;52.124;5.196;2023-07-20T12:25:39;1.02;;;0.60;;
20734;SDS011;10528;52.124;5.196;2023-07-20T12:28:12;1.08;;;0.60;;
20734;SDS011;10528;52.124;5.196;2023-07-20T12:30:42;2.33;;;0.70;;
20734;SDS011;10528;52.124;5.196;2023-07-20T12:33:11;1.50;;;0.50;;
20734;SDS011;10528;52.124;5.196;2023-07-20T12:35:42;2.63;;;0.80;;
20734;SDS011;10528;52.124;5.196;2023-07-20T12:38:09;2.03;;;0.60;;
20734;SDS011;10528;52.124;5.196;2023-07-20T12:40:36;1.00;;;0.50;;
20734;SDS011;10528;52.124;5.196;2023-07-20T12:43:03;1.00;;;0.50;;
20734;SDS011;10528;52.124;5.196;2023-07-20T12:45:31;2.15;;;0.50;;
20734;SDS011;10528;52.124;5.196;2023-07-20T12:47:58;1.60;;;0.70;;
20734;SDS011;10528;52.124;5.196;2023-07-20T12:50:26;1.10;;;0.60;;
20734;SDS011;10528;52.124;5.196;2023-07-20T12:52:53;0.82;;;0.60;;
20734;SDS011;10528;52.124;5.196;2023-07-20T12:55:20;4.13;;;0.63;;
20734;SDS011;10528;52.124;5.196;2023-07-20T12:57:47;1.05;;;0.57;;
20734;SDS011;10528;52.124;5.196;2023-07-20T13:00:14;2.80;;;0.52;;
20734;SDS011;10528;52.124;5.196;2023-07-20T13:02:42;1.17;;;0.70;;
20734;SDS011;10528;52.124;5.196;2023-07-20T13:05:10;1.63;;;0.60;;
20734;SDS011;10528;52.124;5.196;2023-07-20T13:07:37;1.52;;;0.75;;
20734;SDS011;10528;52.124;5.196;2023-07-20T13:10:08;1.40;;;0.60;;
20734;SDS011;10528;52.124;5.196;2023-07-20T13:12:37;0.85;;;0.43;;
20734;SDS011;10528;52.124;5.196;2023-07-20T13:15:06;3.28;;;0.70;;
20734;SDS011;10528;52.124;5.196;2023-07-20T13:17:35;2.05;;;0.60;;
20734;SDS011;10528;52.124;5.196;2023-07-20T13:20:03;0.90;;;0.60;;
20734;SDS011;10528;52.124;5.196;2023-07-20T13:22:32;3.42;;;0.63;;
20734;SDS011;10528;52.124;5.196;2023-07-20T13:25:00;3.83;;;0.70;;
20734;SDS011;10528;52.124;5.196;2023-07-20T13:27:28;1.30;;;0.60;;
20734;SDS011;10528;52.124;5.196;2023-07-20T13:29:58;0.80;;;0.50;;
20734;SDS011;10528;52.124;5.196;2023-07-20T13:32:29;2.05;;;0.63;;
20734;SDS011;10528;52.124;5.196;2023-07-20T13:34:59;0.50;;;0.40;;
20734;SDS011;10528;52.124;5.196;2023-07-20T13:37:28;0.60;;;0.52;;
20734;SDS011;10528;52.124;5.196;2023-07-20T13:39:55;1.27;;;0.60;;
20734;SDS011;10528;52.124;5.196;2023-07-20T13:42:23;3.42;;;0.60;;
20734;SDS011;10528;52.124;5.196;2023-07-20T13:44:50;1.17;;;0.60;;
20734;SDS011;10528;52.124;5.196;2023-07-20T13:47:17;2.75;;;0.85;;
20734;SDS011;10528;52.124;5.196;2023-07-20T13:49:47;2.03;;;0.80;;
20734;SDS011;10528;52.124;5.196;2023-07-20T13:52:15;2.78;;;0.63;;
20734;SDS011;10528;52.124;5.196;2023-07-20T13:54:45;1.85;;;0.80;;
20734;SDS011;10528;52.124;5.196;2023-07-20T13:57:16;1.05;;;0.60;;
20734;SDS011;10528;52.124;5.196;2023-07-20T13:59:44;1.85;;;0.70;;
20734;SDS011;10528;52.124;5.196;2023-07-20T14:02:13;1.38;;;0.65;;
20734;SDS011;10528;52.124;5.196;2023-07-20T14:04:44;2.47;;;0.70;;
20734;SDS011;10528;52.124;5.196;2023-07-20T14:07:12;1.83;;;0.63;;
20734;SDS011;10528;52.124;5.196;2023-07-20T14:09:42;2.10;;;0.65;;
20734;SDS011;10528;52.124;5.196;2023-07-20T14:12:11;1.27;;;0.70;;
20734;SDS011;10528;52.124;5.196;2023-07-20T14:14:43;2.35;;;0.70;;
20734;SDS011;10528;52.124;5.196;2023-07-20T14:17:09;1.42;;;0.60;;
20734;SDS011;10528;52.124;5.196;2023-07-20T14:19:37;0.80;;;0.50;;
20734;SDS011;10528;52.124;5.196;2023-07-20T14:22:04;1.90;;;0.60;;
20734;SDS011;10528;52.124;5.196;2023-07-20T14:24:31;0.85;;;0.50;;
20734;SDS011;10528;52.124;5.196;2023-07-20T14:26:58;2.35;;;0.63;;
20734;SDS011;10528;52.124;5.196;2023-07-20T14:29:26;0.88;;;0.50;;
20734;SDS011;10528;52.124;5.196;2023-07-20T14:31:58;0.93;;;0.60;;
20734;SDS011;10528;52.124;5.196;2023-07-20T14:34:25;1.08;;;0.50;;
20734;SDS011;10528;52.124;5.196;2023-07-20T14:36:52;1.08;;;0.47;;
20734;SDS011;10528;52.124;5.196;2023-07-20T14:39:20;0.40;;;0.25;;
20734;SDS011;10528;52.124;5.196;2023-07-20T14:41:47;0.70;;;0.40;;
20734;SDS011;10528;52.124;5.196;2023-07-20T14:44:16;2.83;;;0.52;;
20734;SDS011;10528;52.124;5.196;2023-07-20T14:46:43;1.55;;;0.70;;
20734;SDS011;10528;52.124;5.196;2023-07-20T14:49:27;2.65;;;0.60;;
20734;SDS011;10528;52.124;5.196;2023-07-20T14:51:54;1.17;;;0.60;;
20734;SDS011;10528;52.124;5.196;2023-07-20T14:54:25;1.30;;;0.73;;
20734;SDS011;10528;52.124;5.196;2023-07-20T14:56:52;1.83;;;0.55;;
20734;SDS011;10528;52.124;5.196;2023-07-20T14:59:19;2.42;;;0.95;;
20734;SDS011;10528;52.124;5.196;2023-07-20T15:01:46;1.15;;;0.40;;
20734;SDS011;10528;52.124;5.196;2023-07-20T15:04:14;1.55;;;0.50;;
20734;SDS011;10528;52.124;5.196;2023-07-20T15:06:41;1.05;;;0.50;;
20734;SDS011;10528;52.124;5.196;2023-07-20T15:09:09;0.55;;;0.40;;
20734;SDS011;10528;52.124;5.196;2023-07-20T15:11:36;2.15;;;0.50;;
20734;SDS011;10528;52.124;5.196;2023-07-20T15:14:03;0.47;;;0.40;;
20734;SDS011;10528;52.124;5.196;2023-07-20T15:16:30;1.40;;;0.47;;
20734;SDS011;10528;52.124;5.196;2023-07-20T15:18:57;0.70;;;0.50;;